createdAt,value
2023-02-08T00:00:44.586Z,100.00
2023-02-08T00:03:11.960Z,100.00
2023-02-08T00:05:39.028Z,100.00
2023-02-08T00:08:06.152Z,100.00
2023-02-08T00:10:33.727Z,100.00
2023-02-08T00:13:00.756Z,100.00
2023-02-08T00:15:27.558Z,100.00
2023-02-08T00:17:54.321Z,100.00
2023-02-08T00:20:21.023Z,100.00
2023-02-08T00:22:47.856Z,100.00
2023-02-08T00:25:14.802Z,100.00
2023-02-08T00:27:41.591Z,100.00
2023-02-08T00:30:09.140Z,100.00
2023-02-08T00:32:35.909Z,100.00
2023-02-08T00:35:02.636Z,100.00
2023-02-08T00:37:29.394Z,100.00
2023-02-08T00:39:56.150Z,100.00
2023-02-08T00:42:23.738Z,100.00
2023-02-08T00:44:50.414Z,100.00
2023-02-08T00:47:17.145Z,100.00
2023-02-08T00:49:43.910Z,100.00
2023-02-08T00:52:10.736Z,100.00
2023-02-08T00:54:37.486Z,100.00
2023-02-08T00:57:05.117Z,100.00
2023-02-08T00:59:31.900Z,100.00
2023-02-08T01:01:58.895Z,100.00
2023-02-08T01:04:25.855Z,100.00
2023-02-08T01:06:52.712Z,100.00
2023-02-08T01:09:19.495Z,100.00
2023-02-08T01:11:49.401Z,100.00
2023-02-08T01:14:16.226Z,100.00
2023-02-08T01:16:43.070Z,100.00
2023-02-08T01:19:10.392Z,100.00
2023-02-08T01:21:40.034Z,100.00
2023-02-08T01:24:07.711Z,100.00
2023-02-08T01:26:35.169Z,100.00
2023-02-08T01:29:02.778Z,100.00
2023-02-08T01:31:33.156Z,100.00
2023-02-08T01:34:01.030Z,100.00
2023-02-08T01:36:29.347Z,100.00
2023-02-08T01:38:56.138Z,100.00
2023-02-08T01:41:30.578Z,100.00
2023-02-08T01:44:28.930Z,100.00
2023-02-08T01:46:56.030Z,100.00
2023-02-08T01:49:29.871Z,100.00
2023-02-08T01:52:05.096Z,100.00
2023-02-08T01:54:39.040Z,100.00
2023-02-08T01:57:06.445Z,100.00
2023-02-08T01:59:50.016Z,100.00
2023-02-08T02:02:19.707Z,100.00
2023-02-08T02:04:48.671Z,100.00
2023-02-08T02:07:17.213Z,100.00
2023-02-08T02:09:53.180Z,100.00
2023-02-08T02:12:21.203Z,100.00
2023-02-08T02:14:48.902Z,100.00
2023-02-08T02:17:18.650Z,100.00
2023-02-08T02:19:54.452Z,100.00
2023-02-08T02:23:03.349Z,100.00
2023-02-08T02:26:01.152Z,100.00
2023-02-08T02:28:55.656Z,100.00
2023-02-08T02:31:44.015Z,100.00
2023-02-08T02:34:26.302Z,100.00
2023-02-08T02:37:12.493Z,100.00
2023-02-08T02:40:05.442Z,100.00
2023-02-08T02:43:27.194Z,100.00
2023-02-08T02:46:37.441Z,100.00
2023-02-08T02:49:12.141Z,100.00
2023-02-08T02:51:53.997Z,100.00
2023-02-08T02:54:27.532Z,100.00
2023-02-08T02:57:03.263Z,100.00
2023-02-08T02:59:33.848Z,100.00
2023-02-08T03:02:01.833Z,100.00
2023-02-08T03:04:35.461Z,100.00
2023-02-08T03:07:18.617Z,100.00
2023-02-08T03:10:13.027Z,100.00
2023-02-08T03:12:50.122Z,100.00
2023-02-08T03:15:52.215Z,100.00
2023-02-08T03:18:32.727Z,100.00
2023-02-08T03:21:16.561Z,100.00
2023-02-08T03:23:56.110Z,100.00
2023-02-08T03:26:57.887Z,100.00
2023-02-08T03:29:44.052Z,100.00
2023-02-08T03:32:38.780Z,100.00
2023-02-08T03:35:10.195Z,100.00
2023-02-08T03:37:43.774Z,100.00
2023-02-08T03:40:23.006Z,100.00
2023-02-08T03:42:53.068Z,100.00
2023-02-08T03:45:26.098Z,100.00
2023-02-08T03:47:57.473Z,100.00
2023-02-08T03:50:25.156Z,100.00
2023-02-08T03:52:53.176Z,100.00
2023-02-08T03:55:27.541Z,100.00
2023-02-08T03:58:06.210Z,100.00
2023-02-08T04:00:38.370Z,100.00
2023-02-08T04:03:13.387Z,100.00
2023-02-08T04:05:40.942Z,100.00
2023-02-08T04:08:07.970Z,100.00
2023-02-08T04:10:35.084Z,100.00
2023-02-08T04:13:01.884Z,100.00
2023-02-08T04:15:28.799Z,100.00
2023-02-08T04:17:55.560Z,100.00
2023-02-08T04:20:22.407Z,100.00
2023-02-08T04:22:49.211Z,100.00
2023-02-08T04:25:16.403Z,100.00
2023-02-08T04:27:43.180Z,100.00
2023-02-08T04:30:10.672Z,100.00
2023-02-08T04:32:37.430Z,100.00
2023-02-08T04:35:04.633Z,100.00
2023-02-08T04:37:31.912Z,100.00
2023-02-08T04:39:58.798Z,100.00
2023-02-08T04:42:25.700Z,100.00
2023-02-08T04:44:52.469Z,100.00
2023-02-08T04:47:19.240Z,100.00
2023-02-08T04:49:46.119Z,100.00
2023-02-08T04:52:12.878Z,100.00
2023-02-08T04:54:41.006Z,100.00
2023-02-08T04:57:09.053Z,100.00
2023-02-08T04:59:35.937Z,100.00
2023-02-08T05:02:02.957Z,100.00
2023-02-08T05:04:30.908Z,100.00
2023-02-08T05:06:57.721Z,100.00
2023-02-08T05:09:24.764Z,100.00
2023-02-08T05:11:51.551Z,100.00
2023-02-08T05:14:18.391Z,100.00
2023-02-08T05:16:45.186Z,100.00
2023-02-08T05:19:12.183Z,100.00
2023-02-08T05:21:39.037Z,100.00
2023-02-08T05:24:07.140Z,100.00
2023-02-08T05:26:34.084Z,100.00
2023-02-08T05:29:00.898Z,100.00
2023-02-08T05:31:27.805Z,100.00
2023-02-08T05:33:54.574Z,100.00
2023-02-08T05:36:23.235Z,100.00
2023-02-08T05:38:50.514Z,100.00
2023-02-08T05:41:17.770Z,100.00
2023-02-08T05:43:45.955Z,100.00
2023-02-08T05:46:13.109Z,100.00
2023-02-08T05:48:39.869Z,100.00
2023-02-08T05:51:06.846Z,100.00
2023-02-08T05:53:33.761Z,100.00
2023-02-08T05:56:01.079Z,100.00
2023-02-08T05:58:28.404Z,100.00
2023-02-08T06:00:55.122Z,100.00
2023-02-08T06:03:22.621Z,100.00
2023-02-08T06:05:49.473Z,100.00
2023-02-08T06:08:16.248Z,100.00
2023-02-08T06:10:43.368Z,100.00
2023-02-08T06:13:10.125Z,100.00
2023-02-08T06:15:36.841Z,100.00
2023-02-08T06:18:03.576Z,100.00
2023-02-08T06:20:30.360Z,100.00
2023-02-08T06:22:57.089Z,100.00
2023-02-08T06:25:23.851Z,100.00
2023-02-08T06:27:50.613Z,100.00
2023-02-08T06:30:17.438Z,100.00
2023-02-08T06:32:44.369Z,100.00
2023-02-08T06:35:11.616Z,100.00
2023-02-08T06:37:38.834Z,100.00
2023-02-08T06:40:06.540Z,100.00
2023-02-08T06:42:33.728Z,100.00
2023-02-08T06:45:00.517Z,100.00
2023-02-08T06:47:28.766Z,100.00
2023-02-08T06:49:55.674Z,100.00
2023-02-08T06:52:22.431Z,100.00
2023-02-08T06:54:49.227Z,100.00
2023-02-08T06:57:16.116Z,100.00
2023-02-08T06:59:43.356Z,100.00
2023-02-08T07:02:15.004Z,100.00
2023-02-08T07:04:42.115Z,100.00
2023-02-08T07:07:08.997Z,100.00
2023-02-08T07:09:36.796Z,100.00
2023-02-08T07:12:05.354Z,100.00
2023-02-08T07:14:33.939Z,100.00
2023-02-08T07:17:02.115Z,100.00
2023-02-08T07:19:29.592Z,100.00
2023-02-08T07:21:57.437Z,100.00
2023-02-08T07:24:24.306Z,100.00
2023-02-08T07:26:51.034Z,100.00
2023-02-08T07:29:17.784Z,100.00
2023-02-08T07:31:44.600Z,100.00
2023-02-08T07:34:11.333Z,100.00
2023-02-08T07:36:38.117Z,100.00
2023-02-08T07:39:04.904Z,100.00
2023-02-08T07:41:31.654Z,100.00
2023-02-08T07:44:00.124Z,100.00
2023-02-08T07:46:26.918Z,100.00
2023-02-08T07:48:53.743Z,100.00
2023-02-08T07:51:20.566Z,100.00
2023-02-08T07:53:47.309Z,100.00
2023-02-08T07:56:14.345Z,100.00
2023-02-08T07:58:41.099Z,100.00
2023-02-08T08:01:23.506Z,100.00
2023-02-08T08:03:51.889Z,100.00
2023-02-08T08:06:23.035Z,100.00
2023-02-08T08:08:50.209Z,100.00
2023-02-08T08:11:17.962Z,100.00
2023-02-08T08:13:44.970Z,100.00
2023-02-08T08:16:12.171Z,100.00
2023-02-08T08:18:39.164Z,100.00
2023-02-08T08:21:06.377Z,100.00
2023-02-08T08:23:33.417Z,100.00
2023-02-08T08:26:00.828Z,100.00
2023-02-08T08:28:28.132Z,100.00
2023-02-08T08:30:55.064Z,100.00
2023-02-08T08:33:22.073Z,100.00
2023-02-08T08:35:48.870Z,100.00
2023-02-08T08:38:15.615Z,100.00
2023-02-08T08:40:42.656Z,100.00
2023-02-08T08:43:09.687Z,100.00
2023-02-08T08:45:36.486Z,100.00
2023-02-08T08:48:04.622Z,100.00
2023-02-08T08:50:31.486Z,100.00
2023-02-08T08:52:58.249Z,100.00
2023-02-08T08:55:25.980Z,100.00
2023-02-08T08:57:53.683Z,100.00
2023-02-08T09:00:20.542Z,100.00
2023-02-08T09:02:47.530Z,100.00
2023-02-08T09:05:14.344Z,100.00
2023-02-08T09:07:41.211Z,100.00
2023-02-08T09:10:08.134Z,100.00
2023-02-08T09:12:34.954Z,100.00
2023-02-08T09:15:01.719Z,100.00
2023-02-08T09:17:28.560Z,100.00
2023-02-08T09:19:55.304Z,100.00
2023-02-08T09:22:22.220Z,100.00
2023-02-08T09:24:48.956Z,100.00
2023-02-08T09:27:15.760Z,100.00
2023-02-08T09:29:42.444Z,100.00
2023-02-08T09:32:10.594Z,100.00
2023-02-08T09:34:37.573Z,100.00
2023-02-08T09:37:04.412Z,100.00
2023-02-08T09:39:31.186Z,100.00
2023-02-08T09:42:16.675Z,100.00
2023-02-08T09:45:01.643Z,100.00
2023-02-08T09:47:36.464Z,100.00
2023-02-08T09:50:35.398Z,100.00
2023-02-08T09:53:20.447Z,100.00
2023-02-08T09:55:51.766Z,100.00
2023-02-08T09:58:31.273Z,100.00
2023-02-08T10:00:58.540Z,100.00
2023-02-08T10:03:34.501Z,100.00
2023-02-08T10:06:03.176Z,100.00
2023-02-08T10:08:35.207Z,100.00
2023-02-08T10:11:20.174Z,100.00
2023-02-08T10:13:49.681Z,100.00
2023-02-08T10:16:44.640Z,100.00
2023-02-08T10:19:32.778Z,100.00
2023-02-08T10:22:21.700Z,100.00
2023-02-08T10:25:08.718Z,100.00
2023-02-08T10:28:29.397Z,100.00
2023-02-08T10:31:45.631Z,100.00
2023-02-08T10:34:39.278Z,100.00
2023-02-08T10:37:18.713Z,100.00
2023-02-08T10:39:46.848Z,100.00
2023-02-08T10:42:17.756Z,100.00
2023-02-08T10:45:22.448Z,100.00
2023-02-08T10:48:04.747Z,100.00
2023-02-08T10:50:40.885Z,100.00
2023-02-08T10:53:18.708Z,86.34
2023-02-08T10:55:47.756Z,55.46
2023-02-08T10:58:20.356Z,50.60
2023-02-08T11:00:48.579Z,50.50
2023-02-08T11:03:20.522Z,45.31
2023-02-08T11:05:47.700Z,44.81
2023-02-08T11:08:19.696Z,44.64
2023-02-08T11:10:57.241Z,44.91
2023-02-08T11:13:26.370Z,44.32
2023-02-08T11:15:55.418Z,45.94
2023-02-08T11:18:22.136Z,45.27
2023-02-08T11:20:53.103Z,43.43
2023-02-08T11:23:23.867Z,40.57
2023-02-08T11:25:51.372Z,38.59
2023-02-08T11:28:30.264Z,37.07
2023-02-08T11:31:03.246Z,36.18
2023-02-08T11:33:30.421Z,34.18
2023-02-08T11:36:01.889Z,33.11
2023-02-08T11:38:30.074Z,32.48
2023-02-08T11:41:00.710Z,30.60
2023-02-08T11:43:30.995Z,30.34
2023-02-08T11:45:59.805Z,32.94
2023-02-08T11:48:40.825Z,39.43
2023-02-08T11:51:08.715Z,35.90
2023-02-08T11:53:41.066Z,34.43
2023-02-08T11:56:23.424Z,38.93
2023-02-08T11:58:56.328Z,41.79
2023-02-08T12:01:28.815Z,47.28
2023-02-08T12:03:58.185Z,50.57
2023-02-08T12:06:52.661Z,50.27
2023-02-08T12:09:31.531Z,49.59
2023-02-08T12:12:04.373Z,47.84
2023-02-08T12:15:01.560Z,49.70
2023-02-08T12:17:28.449Z,52.15
2023-02-08T12:20:08.371Z,54.09
2023-02-08T12:22:39.670Z,54.34
2023-02-08T12:25:21.607Z,55.49
2023-02-08T12:28:00.064Z,56.52
2023-02-08T12:30:36.260Z,53.49
2023-02-08T12:33:24.436Z,51.74
2023-02-08T12:36:05.805Z,48.75
2023-02-08T12:39:19.476Z,50.18
2023-02-08T12:41:56.448Z,51.67
2023-02-08T12:44:29.493Z,53.49
2023-02-08T12:47:31.777Z,54.88
2023-02-08T12:50:09.487Z,56.10
2023-02-08T12:52:47.878Z,57.92
2023-02-08T12:55:42.682Z,59.44
2023-02-08T12:58:28.678Z,59.48
2023-02-08T13:01:08.053Z,59.38
2023-02-08T13:03:37.926Z,60.67
2023-02-08T13:06:08.539Z,61.90
2023-02-08T13:08:47.824Z,64.08
2023-02-08T13:11:40.135Z,64.74
2023-02-08T13:14:29.404Z,66.18
2023-02-08T13:17:00.998Z,68.95
2023-02-08T13:19:54.430Z,68.25
2023-02-08T13:22:26.346Z,67.24
2023-02-08T13:25:06.450Z,66.67
2023-02-08T13:27:34.842Z,65.96
2023-02-08T13:30:02.343Z,64.64
2023-02-08T13:32:35.672Z,64.91
2023-02-08T13:35:19.604Z,65.98
2023-02-08T13:37:59.012Z,68.89
2023-02-08T13:40:30.353Z,70.28
2023-02-08T13:43:04.011Z,71.62
2023-02-08T13:45:40.270Z,72.28
2023-02-08T13:48:10.139Z,72.11
2023-02-08T13:50:56.951Z,72.48
2023-02-08T13:53:53.043Z,72.30
2023-02-08T13:56:38.084Z,72.69
2023-02-08T13:59:25.598Z,72.32
2023-02-08T14:02:20.302Z,73.32
2023-02-08T14:04:52.667Z,73.32
2023-02-08T14:07:43.887Z,73.29
2023-02-08T14:10:31.932Z,72.10
2023-02-08T14:13:04.789Z,71.28
2023-02-08T14:15:34.414Z,69.62
2023-02-08T14:18:02.058Z,68.91
2023-02-08T14:20:37.122Z,68.68
2023-02-08T14:23:08.110Z,70.30
2023-02-08T14:25:48.872Z,71.41
2023-02-08T14:28:46.385Z,71.27
2023-02-08T14:31:15.669Z,70.32
2023-02-08T14:33:52.819Z,68.29
2023-02-08T14:36:24.199Z,66.16
2023-02-08T14:39:23.595Z,67.80
2023-02-08T14:42:07.260Z,67.54
2023-02-08T14:44:43.347Z,70.29
2023-02-08T14:47:25.792Z,72.13
2023-02-08T14:50:13.045Z,72.95
2023-02-08T14:52:51.493Z,71.78
2023-02-08T14:55:27.625Z,70.68
2023-02-08T14:57:56.737Z,74.41
2023-02-08T15:00:29.163Z,73.33
2023-02-08T15:02:57.581Z,73.48
2023-02-08T15:05:31.288Z,73.80
2023-02-08T15:08:00.869Z,73.80
2023-02-08T15:10:30.523Z,71.57
2023-02-08T15:13:00.812Z,69.93
2023-02-08T15:15:42.706Z,68.56
2023-02-08T15:18:22.701Z,68.57
2023-02-08T15:21:08.454Z,72.32
2023-02-08T15:23:35.322Z,76.40
2023-02-08T15:26:05.269Z,75.20
2023-02-08T15:28:34.354Z,77.46
2023-02-08T15:31:06.407Z,77.09
2023-02-08T15:33:34.245Z,74.73
2023-02-08T15:36:06.522Z,75.06
2023-02-08T15:38:37.264Z,75.83
2023-02-08T15:41:26.063Z,75.14
2023-02-08T15:44:21.254Z,76.26
2023-02-08T15:49:28.165Z,80.20
2023-02-08T15:51:57.027Z,82.34
2023-02-08T15:54:24.434Z,85.11
2023-02-08T15:56:56.297Z,87.75
2023-02-08T15:59:27.929Z,89.82
2023-02-08T16:01:57.384Z,92.63
2023-02-08T16:04:25.381Z,94.67
2023-02-08T16:06:59.225Z,94.92
2023-02-08T16:09:30.267Z,94.73
2023-02-08T16:12:00.816Z,93.29
2023-02-08T16:14:29.943Z,93.01
2023-02-08T16:16:58.905Z,92.77
2023-02-08T16:19:31.145Z,93.39
2023-02-08T16:22:12.953Z,96.36
2023-02-08T16:24:39.852Z,99.52
2023-02-08T16:27:20.238Z,100.00
2023-02-08T16:29:48.171Z,100.00
2023-02-08T16:32:39.677Z,100.00
2023-02-08T16:35:15.863Z,100.00
2023-02-08T16:37:42.701Z,100.00
2023-02-08T16:40:48.904Z,100.00
2023-02-08T16:43:21.784Z,100.00
2023-02-08T16:46:11.449Z,100.00
2023-02-08T16:48:40.634Z,100.00
2023-02-08T16:51:14.816Z,100.00
2023-02-08T16:53:42.716Z,100.00
2023-02-08T16:56:11.248Z,100.00
2023-02-08T16:58:38.575Z,100.00
2023-02-08T17:01:05.728Z,100.00
2023-02-08T17:03:33.129Z,100.00
2023-02-08T17:06:01.054Z,100.00
2023-02-08T17:08:28.214Z,100.00
2023-02-08T17:10:58.913Z,100.00
2023-02-08T17:13:29.232Z,100.00
2023-02-08T17:15:58.480Z,100.00
2023-02-08T17:18:25.153Z,100.00
2023-02-08T17:20:57.859Z,100.00
2023-02-08T17:23:24.804Z,100.00
2023-02-08T17:25:51.718Z,100.00
2023-02-08T17:28:20.202Z,100.00
2023-02-08T17:30:48.538Z,100.00
2023-02-08T17:33:18.424Z,100.00
2023-02-08T17:35:49.621Z,100.00
2023-02-08T17:38:17.053Z,100.00
2023-02-08T17:40:43.938Z,100.00
2023-02-08T17:43:11.174Z,100.00
2023-02-08T17:45:39.467Z,100.00
2023-02-08T17:48:06.406Z,100.00
2023-02-08T17:50:33.066Z,100.00
2023-02-08T17:52:59.702Z,100.00
2023-02-08T17:55:26.317Z,100.00
2023-02-08T17:57:53.802Z,100.00
2023-02-08T18:00:22.071Z,100.00
2023-02-08T18:02:50.134Z,100.00
2023-02-08T18:05:17.816Z,100.00
2023-02-08T18:07:44.400Z,100.00
2023-02-08T18:10:11.806Z,100.00
2023-02-08T18:12:38.495Z,100.00
2023-02-08T18:15:06.125Z,100.00
2023-02-08T18:17:33.247Z,100.00
2023-02-08T18:19:59.965Z,100.00
2023-02-08T18:22:27.409Z,100.00
2023-02-08T18:24:55.249Z,100.00
2023-02-08T18:27:22.510Z,100.00
2023-02-08T18:29:49.082Z,100.00
2023-02-08T18:32:16.075Z,100.00
2023-02-08T18:34:43.145Z,100.00
2023-02-08T18:37:09.912Z,100.00
2023-02-08T18:39:36.574Z,100.00
2023-02-08T18:42:03.290Z,100.00
2023-02-08T18:44:30.154Z,100.00
2023-02-08T18:46:56.814Z,100.00
2023-02-08T18:49:23.893Z,100.00
2023-02-08T18:51:50.520Z,100.00
2023-02-08T18:54:18.099Z,100.00
2023-02-08T18:56:45.676Z,100.00
2023-02-08T18:59:12.365Z,100.00
2023-02-08T19:01:39.104Z,100.00
2023-02-08T19:04:05.822Z,100.00
2023-02-08T19:06:35.279Z,100.00
2023-02-08T19:09:02.547Z,100.00
2023-02-08T19:11:31.284Z,100.00
2023-02-08T19:13:58.930Z,100.00
2023-02-08T19:16:27.538Z,100.00
2023-02-08T19:18:56.489Z,100.00
2023-02-08T19:21:24.067Z,100.00
2023-02-08T19:23:54.596Z,100.00
2023-02-08T19:26:22.845Z,100.00
2023-02-08T19:28:49.965Z,100.00
2023-02-08T19:31:19.057Z,100.00
2023-02-08T19:33:46.654Z,100.00
2023-02-08T19:36:14.783Z,100.00
2023-02-08T19:38:42.033Z,100.00
2023-02-08T19:41:10.118Z,100.00
2023-02-08T19:43:36.765Z,100.00
2023-02-08T19:46:08.763Z,100.00
2023-02-08T19:48:35.466Z,100.00
2023-02-08T19:51:02.290Z,100.00
2023-02-08T19:53:29.060Z,100.00
2023-02-08T19:55:56.592Z,100.00
2023-02-08T19:58:23.619Z,100.00
2023-02-08T20:00:50.375Z,100.00
2023-02-08T20:03:22.035Z,100.00
2023-02-08T20:05:49.225Z,100.00
2023-02-08T20:08:16.355Z,100.00
2023-02-08T20:10:44.122Z,100.00
2023-02-08T20:13:11.385Z,100.00
2023-02-08T20:15:39.098Z,100.00
2023-02-08T20:18:06.212Z,100.00
2023-02-08T20:20:33.081Z,100.00
2023-02-08T20:23:02.051Z,100.00
2023-02-08T20:25:29.959Z,100.00
2023-02-08T20:27:57.099Z,100.00
2023-02-08T20:30:25.518Z,100.00
2023-02-08T20:32:52.824Z,100.00
2023-02-08T20:35:19.492Z,100.00
2023-02-08T20:37:46.113Z,100.00
2023-02-08T20:40:13.248Z,100.00
2023-02-08T20:42:40.052Z,100.00
2023-02-08T20:45:07.377Z,100.00
2023-02-08T20:47:45.963Z,100.00
2023-02-08T20:50:18.767Z,100.00
2023-02-08T20:52:46.879Z,100.00
2023-02-08T20:55:13.671Z,100.00
2023-02-08T20:57:40.499Z,100.00
2023-02-08T21:00:07.579Z,100.00
2023-02-08T21:02:34.368Z,100.00
2023-02-08T21:05:01.104Z,100.00
2023-02-08T21:07:27.788Z,100.00
2023-02-08T21:09:54.486Z,100.00
2023-02-08T21:12:21.501Z,100.00
2023-02-08T21:14:48.502Z,100.00
2023-02-08T21:17:15.058Z,100.00
2023-02-08T21:19:41.700Z,100.00
2023-02-08T21:22:08.415Z,100.00
2023-02-08T21:24:35.030Z,100.00
2023-02-08T21:27:01.696Z,100.00
2023-02-08T21:29:29.322Z,100.00
2023-02-08T21:31:57.611Z,100.00
2023-02-08T21:34:24.674Z,100.00
2023-02-08T21:36:51.444Z,100.00
2023-02-08T21:39:18.178Z,100.00
2023-02-08T21:41:44.964Z,100.00
2023-02-08T21:44:11.912Z,100.00
2023-02-08T21:46:38.550Z,100.00
2023-02-08T21:49:23.702Z,100.00
2023-02-08T21:52:13.942Z,100.00
2023-02-08T21:54:46.475Z,100.00
2023-02-08T21:57:13.359Z,100.00
2023-02-08T21:59:40.407Z,100.00
2023-02-08T22:02:08.357Z,100.00
2023-02-08T22:04:35.775Z,100.00
2023-02-08T22:07:04.588Z,100.00
2023-02-08T22:09:31.717Z,100.00
2023-02-08T22:11:58.963Z,100.00
2023-02-08T22:14:25.818Z,100.00
2023-02-08T22:16:52.549Z,100.00
2023-02-08T22:19:19.292Z,100.00
2023-02-08T22:21:46.263Z,100.00
2023-02-08T22:24:12.928Z,100.00
2023-02-08T22:26:39.636Z,100.00
2023-02-08T22:29:06.260Z,100.00
2023-02-08T22:31:32.954Z,100.00
2023-02-08T22:33:59.916Z,100.00
2023-02-08T22:36:26.581Z,100.00
2023-02-08T22:38:53.203Z,100.00
2023-02-08T22:41:19.802Z,100.00
2023-02-08T22:43:46.619Z,100.00
2023-02-08T22:46:13.283Z,100.00
2023-02-08T22:48:40.514Z,100.00
2023-02-08T22:51:12.632Z,100.00
2023-02-08T22:53:39.615Z,100.00
2023-02-08T22:56:06.413Z,100.00
2023-02-08T22:58:33.967Z,100.00
2023-02-08T23:01:00.577Z,100.00
2023-02-08T23:03:27.497Z,100.00
2023-02-08T23:05:54.206Z,100.00
2023-02-08T23:08:22.085Z,100.00
2023-02-08T23:10:48.740Z,100.00
2023-02-08T23:13:15.366Z,100.00
2023-02-08T23:15:43.451Z,100.00
2023-02-08T23:18:10.085Z,100.00
2023-02-08T23:20:38.468Z,100.00
2023-02-08T23:23:05.084Z,100.00
2023-02-08T23:25:31.712Z,100.00
2023-02-08T23:27:58.506Z,100.00
2023-02-08T23:30:25.396Z,100.00
2023-02-08T23:32:52.034Z,100.00
2023-02-08T23:35:18.708Z,100.00
2023-02-08T23:37:45.343Z,100.00
2023-02-08T23:40:12.128Z,100.00
2023-02-08T23:42:38.784Z,100.00
2023-02-08T23:45:05.833Z,100.00
2023-02-08T23:47:32.530Z,100.00
2023-02-08T23:49:59.098Z,100.00
2023-02-08T23:52:25.933Z,100.00
2023-02-08T23:54:52.579Z,100.00
2023-02-08T23:57:19.251Z,100.00
2023-02-08T23:59:45.970Z,100.00
